createdAt,value
2019-02-10T00:00:05.455Z,971.78
2019-02-10T00:01:04.603Z,971.94
2019-02-10T00:02:04.991Z,971.75
2019-02-10T00:03:04.846Z,971.85
2019-02-10T00:04:05.140Z,971.81
2019-02-10T00:05:04.484Z,971.73
2019-02-10T00:06:05.065Z,971.61
2019-02-10T00:07:05.268Z,971.75
2019-02-10T00:08:04.807Z,971.91
2019-02-10T00:09:04.746Z,971.81
2019-02-10T00:10:04.829Z,971.76
2019-02-10T00:11:04.578Z,971.86
2019-02-10T00:12:04.620Z,971.73
2019-02-10T00:13:04.737Z,971.79
2019-02-10T00:14:04.753Z,971.89
2019-02-10T00:15:04.865Z,971.70
2019-02-10T00:16:04.873Z,971.59
2019-02-10T00:17:05.627Z,971.73
2019-02-10T00:18:05.087Z,971.79
2019-02-10T00:19:05.398Z,971.70
2019-02-10T00:20:04.756Z,971.79
2019-02-10T00:21:05.148Z,971.70
2019-02-10T00:22:05.273Z,971.56
2019-02-10T00:23:05.442Z,971.83
2019-02-10T00:24:04.534Z,971.59
2019-02-10T00:25:04.608Z,971.71
2019-02-10T00:26:04.581Z,971.59
2019-02-10T00:27:04.599Z,971.54
2019-02-10T00:28:04.757Z,971.74
2019-02-10T00:29:09.855Z,971.43
2019-02-10T00:30:05.171Z,971.65
2019-02-10T00:31:05.411Z,971.65
2019-02-10T00:32:05.381Z,971.71
2019-02-10T00:33:05.530Z,971.60
2019-02-10T00:34:04.551Z,971.65
2019-02-10T00:35:04.578Z,971.62
2019-02-10T00:36:05.021Z,971.57
2019-02-10T00:37:04.902Z,971.71
2019-02-10T00:38:04.563Z,971.63
2019-02-10T00:39:05.175Z,971.65
2019-02-10T00:40:05.347Z,971.68
2019-02-10T00:41:04.557Z,971.80
2019-02-10T00:42:05.061Z,971.74
2019-02-10T00:43:04.586Z,971.68
2019-02-10T00:44:05.227Z,971.74
2019-02-10T00:45:04.491Z,971.80
2019-02-10T00:46:04.748Z,971.63
2019-02-10T00:47:04.792Z,971.66
2019-02-10T00:48:04.917Z,971.66
2019-02-10T00:49:05.364Z,971.80
2019-02-10T00:50:05.325Z,971.52
2019-02-10T00:51:05.055Z,971.49
2019-02-10T00:52:05.202Z,971.57
2019-02-10T00:53:04.599Z,971.49
2019-02-10T00:54:05.028Z,971.69
2019-02-10T00:55:05.033Z,971.52
2019-02-10T00:56:04.536Z,971.57
2019-02-10T00:57:04.961Z,971.55
2019-02-10T00:58:05.567Z,971.49
2019-02-10T00:59:04.581Z,971.57
2019-02-10T01:00:05.235Z,971.52
2019-02-10T01:01:05.247Z,971.43
2019-02-10T01:02:04.632Z,971.35
2019-02-10T01:03:04.708Z,971.49
2019-02-10T01:04:05.264Z,971.43
2019-02-10T01:05:04.919Z,971.49
2019-02-10T01:06:10.050Z,971.43
2019-02-10T01:07:05.558Z,971.55
2019-02-10T01:08:04.610Z,971.46
2019-02-10T01:09:05.244Z,971.46
2019-02-10T01:10:05.729Z,971.49
2019-02-10T01:11:05.490Z,971.44
2019-02-10T01:12:04.516Z,971.43
2019-02-10T01:13:04.880Z,971.30
2019-02-10T01:14:05.023Z,971.49
2019-02-10T01:15:04.707Z,971.32
2019-02-10T01:16:04.801Z,971.27
2019-02-10T01:17:05.296Z,971.30
2019-02-10T01:18:05.299Z,971.32
2019-02-10T01:19:04.637Z,971.21
2019-02-10T01:20:04.633Z,971.21
2019-02-10T01:21:05.218Z,971.24
2019-02-10T01:22:05.498Z,971.21
2019-02-10T01:23:05.368Z,971.10
2019-02-10T01:24:04.562Z,971.13
2019-02-10T01:25:04.596Z,971.10
2019-02-10T01:26:04.694Z,971.02
2019-02-10T01:27:04.899Z,971.10
2019-02-10T01:28:05.464Z,971.13
2019-02-10T01:29:04.616Z,971.05
2019-02-10T01:30:04.758Z,971.02
2019-02-10T01:31:05.080Z,971.13
2019-02-10T01:32:04.813Z,971.05
2019-02-10T01:33:04.745Z,971.16
2019-02-10T01:34:04.807Z,971.13
2019-02-10T01:35:04.429Z,971.08
2019-02-10T01:36:04.675Z,970.91
2019-02-10T01:37:04.671Z,971.10
2019-02-10T01:38:05.512Z,970.85
2019-02-10T01:39:05.345Z,971.02
2019-02-10T01:40:09.591Z,970.88
2019-02-10T01:41:04.976Z,971.05
2019-02-10T01:42:04.492Z,970.96
2019-02-10T01:43:04.538Z,970.91
2019-02-10T01:44:04.865Z,970.85
2019-02-10T01:45:05.017Z,970.88
2019-02-10T01:46:04.598Z,970.97
2019-02-10T01:47:05.017Z,970.88
2019-02-10T01:48:05.346Z,970.85
2019-02-10T01:49:05.303Z,970.85
2019-02-10T01:50:04.527Z,970.99
2019-02-10T01:51:04.623Z,970.74
2019-02-10T01:52:04.633Z,970.91
2019-02-10T01:53:05.142Z,970.74
2019-02-10T01:54:05.250Z,970.74
2019-02-10T01:55:05.293Z,970.80
2019-02-10T01:56:05.293Z,970.66
2019-02-10T01:57:05.292Z,970.55
2019-02-10T01:58:04.573Z,970.63
2019-02-10T01:59:04.944Z,970.66
2019-02-10T02:00:05.034Z,970.72
2019-02-10T02:01:05.175Z,970.52
2019-02-10T02:02:04.553Z,970.63
2019-02-10T02:03:05.082Z,970.77
2019-02-10T02:04:04.607Z,970.52
2019-02-10T02:05:04.862Z,970.55
2019-02-10T02:06:05.287Z,970.58
2019-02-10T02:07:05.455Z,970.61
2019-02-10T02:08:05.496Z,970.47
2019-02-10T02:09:04.771Z,970.49
2019-02-10T02:10:05.253Z,970.52
2019-02-10T02:11:05.237Z,970.44
2019-02-10T02:12:05.424Z,970.42
2019-02-10T02:13:04.746Z,970.49
2019-02-10T02:14:05.318Z,970.49
2019-02-10T02:15:04.700Z,970.52
2019-02-10T02:16:04.688Z,970.36
2019-02-10T02:17:04.850Z,970.43
2019-02-10T02:18:04.973Z,970.42
2019-02-10T02:19:04.580Z,970.28
2019-02-10T02:20:04.619Z,970.22
2019-02-10T02:21:04.844Z,970.24
2019-02-10T02:22:04.818Z,970.22
2019-02-10T02:23:04.966Z,970.24
2019-02-10T02:24:05.015Z,970.19
2019-02-10T02:25:05.171Z,970.10
2019-02-10T02:26:05.323Z,970.07
2019-02-10T02:27:05.375Z,969.99
2019-02-10T02:28:05.038Z,970.04
2019-02-10T02:29:04.892Z,969.85
2019-02-10T02:30:05.471Z,969.99
2019-02-10T02:31:04.804Z,969.88
2019-02-10T02:32:05.085Z,969.96
2019-02-10T02:33:05.165Z,969.80
2019-02-10T02:34:05.191Z,970.04
2019-02-10T02:35:04.424Z,969.88
2019-02-10T02:36:05.169Z,969.80
2019-02-10T02:37:08.537Z,969.98
2019-02-10T02:38:05.236Z,969.85
2019-02-10T02:39:05.446Z,969.91
2019-02-10T02:40:05.109Z,969.71
2019-02-10T02:41:04.448Z,969.74
2019-02-10T02:42:04.809Z,969.91
2019-02-10T02:43:04.912Z,969.91
2019-02-10T02:44:05.038Z,969.77
2019-02-10T02:45:05.433Z,969.80
2019-02-10T02:46:05.293Z,969.57
2019-02-10T02:47:04.690Z,969.83
2019-02-10T02:48:04.497Z,969.77
2019-02-10T02:49:10.199Z,969.71
2019-02-10T02:50:04.556Z,969.77
2019-02-10T02:51:04.602Z,969.85
2019-02-10T02:52:04.963Z,969.66
2019-02-10T02:53:05.388Z,969.80
2019-02-10T02:54:04.648Z,969.60
2019-02-10T02:55:05.061Z,969.66
2019-02-10T02:56:05.244Z,969.69
2019-02-10T02:57:05.317Z,969.57
2019-02-10T02:58:04.571Z,969.63
2019-02-10T02:59:04.768Z,969.46
2019-02-10T03:00:04.824Z,969.71
2019-02-10T03:01:04.854Z,969.52
2019-02-10T03:02:05.014Z,969.49
2019-02-10T03:03:04.511Z,969.40
2019-02-10T03:04:04.560Z,969.52
2019-02-10T03:05:04.916Z,969.52
2019-02-10T03:06:05.090Z,969.43
2019-02-10T03:07:05.511Z,969.40
2019-02-10T03:08:05.020Z,969.57
2019-02-10T03:09:05.391Z,969.52
2019-02-10T03:10:05.719Z,969.46
2019-02-10T03:11:04.698Z,969.40
2019-02-10T03:12:04.788Z,969.46
2019-02-10T03:13:04.805Z,969.46
2019-02-10T03:14:04.938Z,969.40
2019-02-10T03:15:05.423Z,969.29
2019-02-10T03:16:05.062Z,969.38
2019-02-10T03:17:05.235Z,969.38
2019-02-10T03:18:04.584Z,969.24
2019-02-10T03:19:04.855Z,969.15
2019-02-10T03:20:05.497Z,969.38
2019-02-10T03:21:04.865Z,969.32
2019-02-10T03:22:04.936Z,969.15
2019-02-10T03:23:04.952Z,969.32
2019-02-10T03:24:05.026Z,969.24
2019-02-10T03:25:05.194Z,969.04
2019-02-10T03:26:05.235Z,969.16
2019-02-10T03:27:04.808Z,969.05
2019-02-10T03:28:05.188Z,968.99
2019-02-10T03:29:10.183Z,969.10
2019-02-10T03:30:04.654Z,968.99
2019-02-10T03:31:04.763Z,969.05
2019-02-10T03:32:05.555Z,968.96
2019-02-10T03:33:05.486Z,968.91
2019-02-10T03:34:04.687Z,968.94
2019-02-10T03:35:05.445Z,968.86
2019-02-10T03:36:04.483Z,968.80
2019-02-10T03:37:04.569Z,968.80
2019-02-10T03:38:04.689Z,968.75
2019-02-10T03:39:04.864Z,968.67
2019-02-10T03:40:04.766Z,968.72
2019-02-10T03:41:05.026Z,968.65
2019-02-10T03:42:05.142Z,968.78
2019-02-10T03:43:05.250Z,968.87
2019-02-10T03:44:04.599Z,968.68
2019-02-10T03:45:04.580Z,968.68
2019-02-10T03:46:05.214Z,968.76
2019-02-10T03:47:04.716Z,968.71
2019-02-10T03:48:04.716Z,968.51
2019-02-10T03:49:04.909Z,968.81
2019-02-10T03:50:05.075Z,968.48
2019-02-10T03:51:04.565Z,968.54
2019-02-10T03:52:04.574Z,968.46
2019-02-10T03:53:05.034Z,968.59
2019-02-10T03:54:04.564Z,968.48
2019-02-10T03:55:04.616Z,968.48
2019-02-10T03:56:04.655Z,968.39
2019-02-10T03:57:05.191Z,968.31
2019-02-10T03:58:04.586Z,968.39
2019-02-10T03:59:04.838Z,968.34
2019-02-10T04:00:05.221Z,968.34
2019-02-10T04:01:05.486Z,968.42
2019-02-10T04:02:04.641Z,968.31
2019-02-10T04:03:04.934Z,968.28
2019-02-10T04:04:05.107Z,968.33
2019-02-10T04:05:05.147Z,968.42
2019-02-10T04:06:04.544Z,968.36
2019-02-10T04:07:04.630Z,968.41
2019-02-10T04:08:04.781Z,968.33
2019-02-10T04:09:05.167Z,968.27
2019-02-10T04:10:05.301Z,968.27
2019-02-10T04:11:05.357Z,968.33
2019-02-10T04:12:05.581Z,968.24
2019-02-10T04:13:04.708Z,968.18
2019-02-10T04:14:05.042Z,968.18
2019-02-10T04:15:04.584Z,967.93
2019-02-10T04:16:04.649Z,968.07
2019-02-10T04:17:04.734Z,968.10
2019-02-10T04:18:04.766Z,967.93
2019-02-10T04:19:04.735Z,968.07
2019-02-10T04:20:05.076Z,968.04
2019-02-10T04:21:05.043Z,968.04
2019-02-10T04:22:05.282Z,967.93
2019-02-10T04:23:05.035Z,967.98
2019-02-10T04:24:05.144Z,967.87
2019-02-10T04:25:05.510Z,967.87
2019-02-10T04:26:04.637Z,967.70
2019-02-10T04:27:05.124Z,967.62
2019-02-10T04:28:04.579Z,967.48
2019-02-10T04:29:05.010Z,967.56
2019-02-10T04:30:05.236Z,967.53
2019-02-10T04:31:10.355Z,967.42
2019-02-10T04:32:04.692Z,967.53
2019-02-10T04:33:05.179Z,967.76
2019-02-10T04:34:05.247Z,967.59
2019-02-10T04:35:04.875Z,967.76
2019-02-10T04:36:04.994Z,967.75
2019-02-10T04:37:05.294Z,967.81
2019-02-10T04:38:05.347Z,967.87
2019-02-10T04:39:04.680Z,967.64
2019-02-10T04:40:04.725Z,967.53
2019-02-10T04:41:05.051Z,967.58
2019-02-10T04:42:05.164Z,967.53
2019-02-10T04:43:05.424Z,967.75
2019-02-10T04:44:05.391Z,967.53
2019-02-10T04:45:04.993Z,967.53
2019-02-10T04:46:05.151Z,967.50
2019-02-10T04:47:04.484Z,967.41
2019-02-10T04:48:05.017Z,967.64
2019-02-10T04:49:05.356Z,967.44
2019-02-10T04:50:05.527Z,967.47
2019-02-10T04:51:04.857Z,967.47
2019-02-10T04:52:05.417Z,967.28
2019-02-10T04:53:04.991Z,967.28
2019-02-10T04:54:05.240Z,967.22
2019-02-10T04:55:04.550Z,967.25
2019-02-10T04:56:04.934Z,967.02
2019-02-10T04:57:04.693Z,967.08
2019-02-10T04:58:05.200Z,967.19
2019-02-10T04:59:05.423Z,967.05
2019-02-10T05:00:04.812Z,967.19
2019-02-10T05:01:04.965Z,966.98
2019-02-10T05:02:04.547Z,966.98
2019-02-10T05:03:04.611Z,967.05
2019-02-10T05:04:04.953Z,966.92
2019-02-10T05:05:05.325Z,966.69
2019-02-10T05:06:05.329Z,966.78
2019-02-10T05:07:04.732Z,966.66
2019-02-10T05:08:04.990Z,966.55
2019-02-10T05:09:05.066Z,966.72
2019-02-10T05:10:05.150Z,966.66
2019-02-10T05:11:05.138Z,966.52
2019-02-10T05:12:05.215Z,966.41
2019-02-10T05:13:04.826Z,966.38
2019-02-10T05:14:05.040Z,966.55
2019-02-10T05:15:04.995Z,966.35
2019-02-10T05:16:05.339Z,966.49
2019-02-10T05:17:04.719Z,966.35
2019-02-10T05:18:05.016Z,966.43
2019-02-10T05:19:05.133Z,966.41
2019-02-10T05:20:05.327Z,966.32
2019-02-10T05:21:05.046Z,966.29
2019-02-10T05:22:04.549Z,966.43
2019-02-10T05:23:04.860Z,966.35
2019-02-10T05:24:05.246Z,966.29
2019-02-10T05:25:05.760Z,966.35
2019-02-10T05:26:05.339Z,966.35
2019-02-10T05:27:05.111Z,966.32
2019-02-10T05:28:05.146Z,966.29
2019-02-10T05:29:10.184Z,966.60
2019-02-10T05:30:04.622Z,966.57
2019-02-10T05:31:04.666Z,966.57
2019-02-10T05:32:05.162Z,966.51
2019-02-10T05:33:04.653Z,966.60
2019-02-10T05:34:04.952Z,966.49
2019-02-10T05:35:05.395Z,966.43
2019-02-10T05:36:05.563Z,966.48
2019-02-10T05:37:04.518Z,966.37
2019-02-10T05:38:05.125Z,966.48
2019-02-10T05:39:04.840Z,966.23
2019-02-10T05:40:05.124Z,966.31
2019-02-10T05:41:05.187Z,966.31
2019-02-10T05:42:05.429Z,966.20
2019-02-10T05:43:04.712Z,966.31
2019-02-10T05:44:05.039Z,966.22
2019-02-10T05:45:04.677Z,966.22
2019-02-10T05:46:04.625Z,966.03
2019-02-10T05:47:05.333Z,965.97
2019-02-10T05:48:04.810Z,966.14
2019-02-10T05:49:04.895Z,965.97
2019-02-10T05:50:05.329Z,965.96
2019-02-10T05:51:04.951Z,965.74
2019-02-10T05:52:05.236Z,965.80
2019-02-10T05:53:04.552Z,965.77
2019-02-10T05:54:05.140Z,965.80
2019-02-10T05:55:04.547Z,965.88
2019-02-10T05:56:09.883Z,965.65
2019-02-10T05:57:05.377Z,965.90
2019-02-10T05:58:04.570Z,965.65
2019-02-10T05:59:04.863Z,965.65
2019-02-10T06:00:05.472Z,965.65
2019-02-10T06:01:05.347Z,965.60
2019-02-10T06:02:05.506Z,965.52
2019-02-10T06:03:04.870Z,965.41
2019-02-10T06:04:05.197Z,965.38
2019-02-10T06:05:05.223Z,965.43
2019-02-10T06:06:04.691Z,965.43
2019-02-10T06:07:04.863Z,965.23
2019-02-10T06:08:13.750Z,965.07
2019-02-10T06:09:04.603Z,965.15
2019-02-10T06:10:04.606Z,965.06
2019-02-10T06:11:04.495Z,964.84
2019-02-10T06:12:04.639Z,964.98
2019-02-10T06:13:04.600Z,964.98
2019-02-10T06:14:04.770Z,964.95
2019-02-10T06:15:04.697Z,964.89
2019-02-10T06:16:05.391Z,964.98
2019-02-10T06:17:04.750Z,964.86
2019-02-10T06:18:05.111Z,964.89
2019-02-10T06:19:05.188Z,964.73
2019-02-10T06:20:05.264Z,964.78
2019-02-10T06:21:05.512Z,964.89
2019-02-10T06:22:04.613Z,964.78
2019-02-10T06:23:04.661Z,964.94
2019-02-10T06:24:05.153Z,964.72
2019-02-10T06:25:04.495Z,964.72
2019-02-10T06:26:04.748Z,964.85
2019-02-10T06:27:04.739Z,964.72
2019-02-10T06:28:05.069Z,964.66
2019-02-10T06:29:10.193Z,964.77
2019-02-10T06:30:04.499Z,964.55
2019-02-10T06:31:04.815Z,964.77
2019-02-10T06:32:04.868Z,964.72
2019-02-10T06:33:05.280Z,964.66
2019-02-10T06:34:05.267Z,964.60
2019-02-10T06:35:05.462Z,964.69
2019-02-10T06:36:04.639Z,964.69
2019-02-10T06:37:04.645Z,964.63
2019-02-10T06:38:05.562Z,964.66
2019-02-10T06:39:04.601Z,964.74
2019-02-10T06:40:05.006Z,964.71
2019-02-10T06:41:04.884Z,964.60
2019-02-10T06:42:05.040Z,964.77
2019-02-10T06:43:05.111Z,964.79
2019-02-10T06:44:05.540Z,964.62
2019-02-10T06:45:04.947Z,964.87
2019-02-10T06:46:05.146Z,964.59
2019-02-10T06:47:05.317Z,964.70
2019-02-10T06:48:05.021Z,964.67
2019-02-10T06:49:05.308Z,964.67
2019-02-10T06:50:05.320Z,964.62
2019-02-10T06:51:05.407Z,964.70
2019-02-10T06:52:05.489Z,964.78
2019-02-10T06:53:04.834Z,964.53
2019-02-10T06:54:05.303Z,964.66
2019-02-10T06:55:04.752Z,964.66
2019-02-10T06:56:05.040Z,964.66
2019-02-10T06:57:05.552Z,964.61
2019-02-10T06:58:05.606Z,964.58
2019-02-10T06:59:04.586Z,964.52
2019-02-10T07:00:04.575Z,964.55
2019-02-10T07:01:05.303Z,964.46
2019-02-10T07:02:04.823Z,964.32
2019-02-10T07:03:04.974Z,964.38
2019-02-10T07:04:05.285Z,964.38
2019-02-10T07:05:05.395Z,964.32
2019-02-10T07:06:04.758Z,964.37
2019-02-10T07:07:05.317Z,964.32
2019-02-10T07:08:04.497Z,964.15
2019-02-10T07:09:05.185Z,963.89
2019-02-10T07:10:05.304Z,964.03
2019-02-10T07:11:04.603Z,964.00
2019-02-10T07:12:04.823Z,964.20
2019-02-10T07:13:04.884Z,964.08
2019-02-10T07:14:04.938Z,964.25
2019-02-10T07:15:04.964Z,964.03
2019-02-10T07:16:05.329Z,963.97
2019-02-10T07:17:04.723Z,964.03
2019-02-10T07:18:05.075Z,963.97
2019-02-10T07:19:04.773Z,964.00
2019-02-10T07:20:04.945Z,963.91
2019-02-10T07:21:05.188Z,964.02
2019-02-10T07:22:05.168Z,964.11
2019-02-10T07:23:05.391Z,963.89
2019-02-10T07:24:04.542Z,963.99
2019-02-10T07:25:05.081Z,964.13
2019-02-10T07:26:04.753Z,963.96
2019-02-10T07:27:05.023Z,963.99
2019-02-10T07:28:04.859Z,964.02
2019-02-10T07:29:10.372Z,963.93
2019-02-10T07:30:04.796Z,964.10
2019-02-10T07:31:04.974Z,964.16
2019-02-10T07:32:05.118Z,964.04
2019-02-10T07:33:05.106Z,963.96
2019-02-10T07:34:05.141Z,964.04
2019-02-10T07:35:04.717Z,963.96
2019-02-10T07:36:04.583Z,963.85
2019-02-10T07:37:05.160Z,963.90
2019-02-10T07:38:05.497Z,963.98
2019-02-10T07:39:05.139Z,963.93
2019-02-10T07:40:05.162Z,963.92
2019-02-10T07:41:04.885Z,963.82
2019-02-10T07:42:05.336Z,963.76
2019-02-10T07:43:04.707Z,963.87
2019-02-10T07:44:05.127Z,963.62
2019-02-10T07:45:05.161Z,963.59
2019-02-10T07:46:04.798Z,963.87
2019-02-10T07:47:05.474Z,963.73
2019-02-10T07:48:05.132Z,963.64
2019-02-10T07:49:05.098Z,963.70
2019-02-10T07:50:04.631Z,963.76
2019-02-10T07:51:04.723Z,963.84
2019-02-10T07:52:05.118Z,963.91
2019-02-10T07:53:04.629Z,963.81
2019-02-10T07:54:04.695Z,963.84
2019-02-10T07:55:04.892Z,963.81
2019-02-10T07:56:05.188Z,963.94
2019-02-10T07:57:05.181Z,963.81
2019-02-10T07:58:04.780Z,963.75
2019-02-10T07:59:04.958Z,963.75
2019-02-10T08:00:04.546Z,963.61
2019-02-10T08:01:04.739Z,963.66
2019-02-10T08:02:05.159Z,963.64
2019-02-10T08:03:05.257Z,963.89
2019-02-10T08:04:04.878Z,963.55
2019-02-10T08:05:04.887Z,963.64
2019-02-10T08:06:05.245Z,963.55
2019-02-10T08:07:05.332Z,963.67
2019-02-10T08:08:05.453Z,963.50
2019-02-10T08:09:04.769Z,963.61
2019-02-10T08:10:05.269Z,963.47
2019-02-10T08:11:05.335Z,963.41
2019-02-10T08:12:05.439Z,963.49
2019-02-10T08:13:04.610Z,963.13
2019-02-10T08:14:04.868Z,963.24
2019-02-10T08:15:05.038Z,963.26
2019-02-10T08:16:05.350Z,963.18
2019-02-10T08:17:05.520Z,963.21
2019-02-10T08:18:04.957Z,963.18
2019-02-10T08:19:05.188Z,963.04
2019-02-10T08:20:04.916Z,963.15
2019-02-10T08:21:05.024Z,962.95
2019-02-10T08:22:05.123Z,963.04
2019-02-10T08:23:04.659Z,962.87
2019-02-10T08:24:04.775Z,962.95
2019-02-10T08:25:04.932Z,963.00
2019-02-10T08:26:04.688Z,962.95
2019-02-10T08:27:05.081Z,962.84
2019-02-10T08:28:05.444Z,962.95
2019-02-10T08:29:09.979Z,962.80
2019-02-10T08:30:05.336Z,962.75
2019-02-10T08:31:04.923Z,962.69
2019-02-10T08:32:05.405Z,962.72
2019-02-10T08:33:04.741Z,962.72
2019-02-10T08:34:04.955Z,962.66
2019-02-10T08:35:04.715Z,962.68
2019-02-10T08:36:05.123Z,962.63
2019-02-10T08:37:04.748Z,962.65
2019-02-10T08:38:05.168Z,962.54
2019-02-10T08:39:04.932Z,962.46
2019-02-10T08:40:05.301Z,962.43
2019-02-10T08:41:05.415Z,962.59
2019-02-10T08:42:04.629Z,962.50
2019-02-10T08:43:04.816Z,962.46
2019-02-10T08:44:05.178Z,962.56
2019-02-10T08:45:05.350Z,962.37
2019-02-10T08:46:04.921Z,962.42
2019-02-10T08:47:05.106Z,962.53
2019-02-10T08:48:05.211Z,962.48
2019-02-10T08:49:10.370Z,962.48
2019-02-10T08:50:04.866Z,962.42
2019-02-10T08:51:05.049Z,962.45
2019-02-10T08:52:05.269Z,962.44
2019-02-10T08:53:05.332Z,962.19
2019-02-10T08:54:05.423Z,962.21
2019-02-10T08:55:04.745Z,962.21
2019-02-10T08:56:05.253Z,962.35
2019-02-10T08:57:05.464Z,962.41
2019-02-10T08:58:05.293Z,962.27
2019-02-10T08:59:05.211Z,962.35
2019-02-10T09:00:04.689Z,962.16
2019-02-10T09:01:04.764Z,962.13
2019-02-10T09:02:05.079Z,962.10
2019-02-10T09:03:05.486Z,961.99
2019-02-10T09:04:04.603Z,961.93
2019-02-10T09:05:05.420Z,961.99
2019-02-10T09:06:04.674Z,962.02
2019-02-10T09:07:04.685Z,962.07
2019-02-10T09:08:05.162Z,961.96
2019-02-10T09:09:05.295Z,961.84
2019-02-10T09:10:04.681Z,961.90
2019-02-10T09:11:05.285Z,961.70
2019-02-10T09:12:04.556Z,961.89
2019-02-10T09:13:04.781Z,961.78
2019-02-10T09:14:04.790Z,961.84
2019-02-10T09:15:05.193Z,961.86
2019-02-10T09:16:04.517Z,961.80
2019-02-10T09:17:05.198Z,961.72
2019-02-10T09:18:04.497Z,961.66
2019-02-10T09:19:04.651Z,961.66
2019-02-10T09:20:05.441Z,961.71
2019-02-10T09:21:05.106Z,961.63
2019-02-10T09:22:05.209Z,961.71
2019-02-10T09:23:04.786Z,961.77
2019-02-10T09:24:04.745Z,961.74
2019-02-10T09:25:04.967Z,961.54
2019-02-10T09:26:04.585Z,961.65
2019-02-10T09:27:04.735Z,961.48
2019-02-10T09:28:04.707Z,961.40
2019-02-10T09:29:10.037Z,961.37
2019-02-10T09:30:05.354Z,961.40
2019-02-10T09:31:04.710Z,961.43
2019-02-10T09:32:04.780Z,961.31
2019-02-10T09:33:05.280Z,961.31
2019-02-10T09:34:05.322Z,961.17
2019-02-10T09:35:04.629Z,961.26
2019-02-10T09:36:04.766Z,961.17
2019-02-10T09:37:04.775Z,960.98
2019-02-10T09:38:05.477Z,961.09
2019-02-10T09:39:11.329Z,961.03
2019-02-10T09:40:05.098Z,960.95
2019-02-10T09:41:05.454Z,960.95
2019-02-10T09:42:05.081Z,960.90
2019-02-10T09:43:05.434Z,960.90
2019-02-10T09:44:05.372Z,960.81
2019-02-10T09:45:04.502Z,960.71
2019-02-10T09:46:04.778Z,960.62
2019-02-10T09:47:05.034Z,960.65
2019-02-10T09:48:05.558Z,960.71
2019-02-10T09:49:05.012Z,960.54
2019-02-10T09:50:05.349Z,960.57
2019-02-10T09:51:04.677Z,960.48
2019-02-10T09:52:04.736Z,960.34
2019-02-10T09:53:04.820Z,960.37
2019-02-10T09:54:05.029Z,960.51
2019-02-10T09:55:10.099Z,960.37
2019-02-10T09:56:05.539Z,960.29
2019-02-10T09:57:04.608Z,960.20
2019-02-10T09:58:04.852Z,960.23
2019-02-10T09:59:04.841Z,960.06
2019-02-10T10:00:05.020Z,960.14
2019-02-10T10:01:05.276Z,960.20
2019-02-10T10:02:05.461Z,960.08
2019-02-10T10:03:04.598Z,960.14
2019-02-10T10:04:04.812Z,960.06
2019-02-10T10:05:04.758Z,959.80
2019-02-10T10:06:04.896Z,959.94
2019-02-10T10:07:05.467Z,959.97
2019-02-10T10:08:04.570Z,959.91
2019-02-10T10:09:04.919Z,960.03
2019-02-10T10:10:04.823Z,959.80
2019-02-10T10:11:05.116Z,959.86
2019-02-10T10:12:04.818Z,959.74
2019-02-10T10:13:04.534Z,959.74
2019-02-10T10:14:05.161Z,959.91
2019-02-10T10:15:05.336Z,959.61
2019-02-10T10:16:05.032Z,959.67
2019-02-10T10:17:05.203Z,959.77
2019-02-10T10:18:04.559Z,959.67
2019-02-10T10:19:05.009Z,959.83
2019-02-10T10:20:05.047Z,959.61
2019-02-10T10:21:04.786Z,959.47
2019-02-10T10:22:05.206Z,959.61
2019-02-10T10:23:04.676Z,959.72
2019-02-10T10:24:04.747Z,959.39
2019-02-10T10:25:05.458Z,959.33
2019-02-10T10:26:04.632Z,959.27
2019-02-10T10:27:05.068Z,959.33
2019-02-10T10:28:05.297Z,959.27
2019-02-10T10:29:10.349Z,959.30
2019-02-10T10:30:05.392Z,959.25
2019-02-10T10:31:05.189Z,959.36
2019-02-10T10:32:05.666Z,959.50
2019-02-10T10:33:04.571Z,959.42
2019-02-10T10:34:04.762Z,959.44
2019-02-10T10:35:04.817Z,959.25
2019-02-10T10:36:04.876Z,959.47
2019-02-10T10:37:04.971Z,959.39
2019-02-10T10:38:05.508Z,959.61
2019-02-10T10:39:05.129Z,959.42
2019-02-10T10:40:05.184Z,959.47
2019-02-10T10:41:04.700Z,959.33
2019-02-10T10:42:05.238Z,959.19
2019-02-10T10:43:04.635Z,959.27
2019-02-10T10:44:04.664Z,959.14
2019-02-10T10:45:05.060Z,958.97
2019-02-10T10:46:05.387Z,959.16
2019-02-10T10:47:05.015Z,959.21
2019-02-10T10:48:05.142Z,959.14
2019-02-10T10:49:05.247Z,959.18
2019-02-10T10:50:05.493Z,958.99
2019-02-10T10:51:04.822Z,958.91
2019-02-10T10:52:05.297Z,959.05
2019-02-10T10:53:04.785Z,958.93
2019-02-10T10:54:05.054Z,959.18
2019-02-10T10:55:05.093Z,958.87
2019-02-10T10:56:04.683Z,958.99
2019-02-10T10:57:04.759Z,958.93
2019-02-10T10:58:04.963Z,958.98
2019-02-10T10:59:05.214Z,958.76
2019-02-10T11:00:05.423Z,958.92
2019-02-10T11:01:05.493Z,959.12
2019-02-10T11:02:05.230Z,958.78
2019-02-10T11:03:05.261Z,958.86
2019-02-10T11:04:05.362Z,958.89
2019-02-10T11:05:04.619Z,958.95
2019-02-10T11:06:05.150Z,958.83
2019-02-10T11:07:04.886Z,958.66
2019-02-10T11:08:04.580Z,958.80
2019-02-10T11:09:04.969Z,958.63
2019-02-10T11:10:05.049Z,958.68
2019-02-10T11:11:05.007Z,958.82
2019-02-10T11:12:04.478Z,958.65
2019-02-10T11:13:05.059Z,958.63
2019-02-10T11:14:05.251Z,958.48
2019-02-10T11:15:04.692Z,958.40
2019-02-10T11:16:04.722Z,958.62
2019-02-10T11:17:04.949Z,958.42
2019-02-10T11:18:05.529Z,958.48
2019-02-10T11:19:05.138Z,958.39
2019-02-10T11:20:04.817Z,958.51
2019-02-10T11:21:04.809Z,958.53
2019-02-10T11:22:04.909Z,958.53
2019-02-10T11:23:05.122Z,958.44
2019-02-10T11:24:05.251Z,958.36
2019-02-10T11:25:05.482Z,958.33
2019-02-10T11:26:05.027Z,958.35
2019-02-10T11:27:04.718Z,958.21
2019-02-10T11:28:05.143Z,958.24
2019-02-10T11:29:10.151Z,958.29
2019-02-10T11:30:04.656Z,958.18
2019-02-10T11:31:04.760Z,958.34
2019-02-10T11:32:04.998Z,958.34
2019-02-10T11:33:05.140Z,958.08
2019-02-10T11:34:04.517Z,958.14
2019-02-10T11:35:04.977Z,958.02
2019-02-10T11:36:04.527Z,957.88
2019-02-10T11:37:04.857Z,957.88
2019-02-10T11:38:04.745Z,958.16
2019-02-10T11:39:04.962Z,957.90
2019-02-10T11:40:04.855Z,957.90
2019-02-10T11:41:05.378Z,957.98
2019-02-10T11:42:04.736Z,957.95
2019-02-10T11:43:05.464Z,958.01
2019-02-10T11:44:05.536Z,957.89
2019-02-10T11:45:04.869Z,957.75
2019-02-10T11:46:04.604Z,957.70
2019-02-10T11:47:04.631Z,957.70
2019-02-10T11:48:04.755Z,957.77
2019-02-10T11:49:04.854Z,957.72
2019-02-10T11:50:04.902Z,957.66
2019-02-10T11:51:05.514Z,957.75
2019-02-10T11:52:04.917Z,957.69
2019-02-10T11:53:05.215Z,957.69
2019-02-10T11:54:04.665Z,957.76
2019-02-10T11:55:05.433Z,957.51
2019-02-10T11:56:05.447Z,957.60
2019-02-10T11:57:05.490Z,957.45
2019-02-10T11:58:04.990Z,957.48
2019-02-10T11:59:05.065Z,957.62
2019-02-10T12:00:05.322Z,957.33
2019-02-10T12:01:04.741Z,957.42
2019-02-10T12:02:04.789Z,957.41
2019-02-10T12:03:05.406Z,957.30
2019-02-10T12:04:04.954Z,957.38
2019-02-10T12:05:05.099Z,957.38
2019-02-10T12:06:05.239Z,957.29
2019-02-10T12:07:04.491Z,957.34
2019-02-10T12:08:05.095Z,957.09
2019-02-10T12:09:05.257Z,957.23
2019-02-10T12:10:05.318Z,957.25
2019-02-10T12:11:04.767Z,957.06
2019-02-10T12:12:05.022Z,957.22
2019-02-10T12:13:05.412Z,957.27
2019-02-10T12:14:04.657Z,957.08
2019-02-10T12:15:05.038Z,957.16
2019-02-10T12:16:05.095Z,957.02
2019-02-10T12:17:05.256Z,957.18
2019-02-10T12:18:05.124Z,956.94
2019-02-10T12:19:04.738Z,956.73
2019-02-10T12:20:04.888Z,956.82
2019-02-10T12:21:05.413Z,956.82
2019-02-10T12:22:04.714Z,957.02
2019-02-10T12:23:05.367Z,957.04
2019-02-10T12:24:05.412Z,957.01
2019-02-10T12:25:04.616Z,956.64
2019-02-10T12:26:05.203Z,957.01
2019-02-10T12:27:04.621Z,956.78
2019-02-10T12:28:05.072Z,956.78